Terminal Aerodrome Forecast
Issued by NWS Jackson, MS

Home | Current Version | Previous Version | Text Only | Print | Product List | Glossary On
Versions: 1 2 3 4 5 6 7 8 9 10 11 12 13 14 15
000
FTUS44 KJAN 302000 AAA
TAFJAN
TAF AMD
KJAN 302008Z 3020/3118 16010KT P6SM -SHRA VCTS SCT015 BKN030CB
      TEMPO 3022/3024 2SM +TSRA OVC010CB
     FM310300 18005KT 5SM BR OVC015
     FM311500 20010KT P6SM BKN015=

USA.gov is the U.S. government's official web portal to all federal, state and local government web resources and services.